createdAt,value
2023-01-17T00:01:05.288Z,4.84
2023-01-17T00:04:02.731Z,5.17
2023-01-17T00:06:55.049Z,5.69
2023-01-17T00:09:56.064Z,5.60
2023-01-17T00:12:32.898Z,5.23
2023-01-17T00:15:26.717Z,4.93
2023-01-17T00:17:57.387Z,4.60
2023-01-17T00:20:48.194Z,5.21
2023-01-17T00:23:43.425Z,5.73
2023-01-17T00:26:17.072Z,5.65
2023-01-17T00:28:47.495Z,5.40
2023-01-17T00:31:23.731Z,5.15
2023-01-17T00:33:56.128Z,4.89
2023-01-17T00:36:28.450Z,5.22
2023-01-17T00:39:27.463Z,5.77
2023-01-17T00:41:55.073Z,5.77
2023-01-17T00:44:41.272Z,5.55
2023-01-17T00:47:57.784Z,5.22
2023-01-17T00:50:55.891Z,4.92
2023-01-17T00:53:45.026Z,5.83
2023-01-17T00:56:39.975Z,6.32
2023-01-17T00:59:41.079Z,6.06
2023-01-17T01:02:32.337Z,5.56
2023-01-17T01:05:20.793Z,5.22
2023-01-17T01:08:22.885Z,4.91
2023-01-17T01:11:11.385Z,4.65
2023-01-17T01:14:02.775Z,5.45
2023-01-17T01:16:54.386Z,5.98
2023-01-17T06:51:47.270Z,1.84
2023-01-17T06:55:55.463Z,3.18
2023-01-17T06:59:56.263Z,2.89
2023-01-17T07:03:08.795Z,2.84
2023-01-17T07:05:43.594Z,3.85
2023-01-17T07:08:17.115Z,4.32
2023-01-17T07:10:46.251Z,4.21
2023-01-17T07:13:13.725Z,3.95
2023-01-17T07:15:41.267Z,3.67
2023-01-17T07:18:13.025Z,3.38
2023-01-17T07:20:43.949Z,3.80
2023-01-17T07:23:13.379Z,4.37
2023-01-17T07:26:02.704Z,4.48
2023-01-17T07:28:39.244Z,4.27
2023-01-17T07:31:08.222Z,4.02
2023-01-17T07:33:44.685Z,3.75
2023-01-17T07:36:25.969Z,4.22
2023-01-17T07:39:24.374Z,4.83
2023-01-17T07:41:54.654Z,4.83
2023-01-17T07:44:48.343Z,4.59
2023-01-17T07:47:18.260Z,4.36
2023-01-17T07:50:01.951Z,4.18
2023-01-17T07:52:50.207Z,4.87
2023-01-17T07:55:19.333Z,5.40
2023-01-17T07:57:50.941Z,5.38
2023-01-17T08:00:47.196Z,5.11
2023-01-17T08:03:19.547Z,4.85
2023-01-17T08:05:55.524Z,4.55
2023-01-17T08:08:30.984Z,5.06
2023-01-17T08:10:58.222Z,5.62
2023-01-17T08:13:36.960Z,5.71
2023-01-17T08:16:08.094Z,5.52
2023-01-17T08:18:35.900Z,5.29
2023-01-17T08:21:13.249Z,5.06
2023-01-17T08:23:57.603Z,4.84
2023-01-17T08:26:33.776Z,5.47
2023-01-17T08:29:04.140Z,6.01
2023-01-17T08:31:40.529Z,6.01
2023-01-17T08:34:17.331Z,5.83
2023-01-17T08:36:44.930Z,5.60
2023-01-17T08:39:14.920Z,5.38
2023-01-17T08:41:45.643Z,5.18
2023-01-17T08:44:14.018Z,5.66
2023-01-17T08:46:49.325Z,5.85
2023-01-17T08:49:25.680Z,5.87
2023-01-17T08:52:07.670Z,5.64
2023-01-17T08:54:35.176Z,5.34
2023-01-17T08:57:04.972Z,5.09
2023-01-17T08:59:34.508Z,4.84
2023-01-17T09:02:06.803Z,5.25
2023-01-17T09:04:49.161Z,5.86
2023-01-17T09:07:17.349Z,5.94
2023-01-17T09:09:45.020Z,5.79
2023-01-17T09:12:12.798Z,5.49
2023-01-17T09:14:45.540Z,5.25
2023-01-17T09:17:14.696Z,5.10
2023-01-17T09:19:47.732Z,5.69
2023-01-17T09:22:15.192Z,6.41
2023-01-17T09:24:42.295Z,6.51
2023-01-17T09:27:09.689Z,6.36
2023-01-17T09:29:36.860Z,6.15
2023-01-17T09:32:04.432Z,5.94
2023-01-17T09:34:33.819Z,5.77
2023-01-17T09:37:01.676Z,6.25
2023-01-17T09:39:31.806Z,6.83
2023-01-17T09:42:19.850Z,6.91
2023-01-17T09:44:51.662Z,6.74
2023-01-17T09:47:20.523Z,6.56
2023-01-17T09:49:47.830Z,6.38
2023-01-17T09:52:17.973Z,6.16
2023-01-17T09:54:46.627Z,6.74
2023-01-17T09:58:05.029Z,7.42
2023-01-17T10:00:54.067Z,7.58
2023-01-17T10:03:40.459Z,7.44
2023-01-17T10:06:36.576Z,7.12
2023-01-17T10:09:24.010Z,6.73
2023-01-17T10:12:06.838Z,6.42
2023-01-17T10:14:53.520Z,7.01
2023-01-17T10:17:36.430Z,7.49
2023-01-17T16:21:33.550Z,3.10
2023-01-17T16:24:01.100Z,4.16
2023-01-17T16:26:29.423Z,4.13
2023-01-17T16:28:56.910Z,3.94
2023-01-17T16:31:27.343Z,3.68
2023-01-17T16:33:58.102Z,4.05
2023-01-17T16:36:25.496Z,4.60
2023-01-17T16:38:53.213Z,4.69
2023-01-17T16:41:22.839Z,4.46
2023-01-17T16:44:02.995Z,4.13
2023-01-17T16:46:30.326Z,4.11
2023-01-17T16:49:00.177Z,4.22
2023-01-17T16:51:27.266Z,4.77
2023-01-17T16:54:06.923Z,5.49
2023-01-17T16:56:34.515Z,5.61
2023-01-17T16:59:02.135Z,5.46
2023-01-17T17:01:32.282Z,5.21
2023-01-17T17:03:59.828Z,4.96
2023-01-17T17:06:27.271Z,4.78
2023-01-17T17:09:01.409Z,5.25
2023-01-17T17:11:28.702Z,5.84
2023-01-17T17:13:55.819Z,5.89
2023-01-17T17:16:32.829Z,5.64
2023-01-17T17:19:07.527Z,5.30
2023-01-17T17:21:35.380Z,4.94
2023-01-17T17:24:07.235Z,4.66
2023-01-17T17:26:35.945Z,4.35
2023-01-17T17:29:04.013Z,4.82
2023-01-17T17:31:31.088Z,5.39
2023-01-17T17:33:59.845Z,5.41
2023-01-17T17:36:27.168Z,5.13
2023-01-17T17:38:57.598Z,4.74
2023-01-17T17:41:28.541Z,4.41
2023-01-17T17:43:55.920Z,4.14
2023-01-17T17:46:24.120Z,3.85
2023-01-17T17:48:53.721Z,4.26
2023-01-17T17:51:34.971Z,4.77
2023-01-17T17:54:03.100Z,4.66
2023-01-17T17:56:30.912Z,4.31
2023-01-17T17:58:58.362Z,3.98
2023-01-17T18:01:25.775Z,3.69
2023-01-17T18:03:54.898Z,3.42
2023-01-17T18:06:22.992Z,3.81
2023-01-17T18:08:52.361Z,4.38
2023-01-17T18:11:22.666Z,4.37
2023-01-17T18:13:52.891Z,4.14
2023-01-17T18:16:25.206Z,3.93
2023-01-17T18:18:54.144Z,3.69
2023-01-17T18:21:25.714Z,3.45
2023-01-17T18:24:15.628Z,3.84
2023-01-17T18:26:52.749Z,4.43
2023-01-17T18:29:20.923Z,4.44
2023-01-17T18:31:50.220Z,4.21
2023-01-17T18:34:24.499Z,3.92
2023-01-17T18:36:52.104Z,3.64
2023-01-17T18:39:20.971Z,3.34
2023-01-17T18:41:48.584Z,3.71
2023-01-17T18:44:16.084Z,4.21
2023-01-17T18:46:43.511Z,4.24
2023-01-17T18:49:11.359Z,4.05
2023-01-17T18:51:38.875Z,3.75
2023-01-17T18:54:07.381Z,3.48
2023-01-17T18:56:35.109Z,3.22
2023-01-17T18:59:05.907Z,3.63
2023-01-17T19:01:35.905Z,4.17
2023-01-17T19:04:04.598Z,4.21
2023-01-17T19:06:38.618Z,4.01
2023-01-17T19:09:15.913Z,3.70
2023-01-17T19:11:47.963Z,3.39
2023-01-17T19:14:17.689Z,3.11
2023-01-17T19:16:45.450Z,3.46
2023-01-17T19:19:17.587Z,4.00
2023-01-17T19:21:45.070Z,4.01
2023-01-17T19:24:13.415Z,3.79
2023-01-17T19:26:44.448Z,3.54
2023-01-17T19:29:11.884Z,3.30
2023-01-17T19:31:46.406Z,3.07
2023-01-17T19:34:23.172Z,3.54
2023-01-17T19:36:50.487Z,4.15
2023-01-17T19:39:17.644Z,4.20
2023-01-17T19:41:45.155Z,4.04
2023-01-17T19:44:13.207Z,3.79
2023-01-17T19:46:43.900Z,3.55
2023-01-17T19:49:12.310Z,3.30
2023-01-17T19:51:42.412Z,3.72
2023-01-17T19:54:12.400Z,4.33
2023-01-17T19:56:39.713Z,4.41
2023-01-17T19:59:10.081Z,4.24
2023-01-17T20:01:37.244Z,4.01
2023-01-17T20:04:05.105Z,3.78
2023-01-17T20:06:40.258Z,3.55
2023-01-17T20:09:09.941Z,4.00
2023-01-17T20:11:38.007Z,4.56
2023-01-17T20:14:05.720Z,4.65
2023-01-17T20:16:35.141Z,4.51
2023-01-17T20:19:03.065Z,4.27
2023-01-17T20:21:31.120Z,4.01
2023-01-17T20:23:59.359Z,3.78
2023-01-17T20:26:31.334Z,4.15
2023-01-17T20:29:01.882Z,4.73
2023-01-17T20:31:30.124Z,4.81
2023-01-17T20:33:57.262Z,4.63
2023-01-17T20:36:26.169Z,4.40
2023-01-17T20:38:54.679Z,4.16
2023-01-17T20:41:31.694Z,3.93
2023-01-17T20:44:00.522Z,4.33
2023-01-17T20:46:29.754Z,4.93
2023-01-17T20:49:01.855Z,5.00
2023-01-17T20:51:29.773Z,4.83
2023-01-17T20:54:00.848Z,4.58
2023-01-17T20:56:30.277Z,4.30
2023-01-17T20:59:00.034Z,4.07
2023-01-17T21:01:33.015Z,4.51
2023-01-17T21:04:00.359Z,5.10
2023-01-17T21:06:37.538Z,5.16
2023-01-17T21:09:08.904Z,4.97
2023-01-17T21:11:39.347Z,4.70
2023-01-17T21:14:09.724Z,4.41
2023-01-17T21:16:37.220Z,4.12
2023-01-17T21:19:04.614Z,4.50
2023-01-17T21:21:32.385Z,5.10
2023-01-17T21:24:05.000Z,5.20
2023-01-17T21:26:32.776Z,5.01
2023-01-17T21:29:03.657Z,4.75
2023-01-17T21:31:34.087Z,4.49
2023-01-17T21:34:03.379Z,4.23
2023-01-17T21:36:33.099Z,4.64
2023-01-17T21:39:04.765Z,5.23
2023-01-17T21:41:37.164Z,5.27
2023-01-17T21:44:08.067Z,5.06
2023-01-17T21:46:39.476Z,4.79
2023-01-17T21:49:08.885Z,4.51
2023-01-17T21:52:02.980Z,4.27
2023-01-17T21:54:52.341Z,4.85
2023-01-17T21:57:39.688Z,5.35
